aviador You're here:

KSSC Decoded Metar

SUMTER in SC, USA
Report Time2018-02-19 11:56:00
UTC Time2018-02-19 12:04:58
Flight Rules lifr LIFR
Wind020° at 07 kt
W.Decomp.*RWY 04: 6.8 kt HW 1.8 kt LCW
W.Rank020° ranks 12
Current wind is above 020° avg. (6.9)
Visibility9999 m
Phenomena:N/A
Clouds:Overcast 003 Hf
Expected CloudBase > 400 ft AGL from Temp-Dew spread
Ceiling300 ft
Temp11°C (ISA -4)
Dew Point10°C (94% RH)
AAT8.5°C
QNH1029 hPa
Density Alt-551 ft
Elevation243 ft
Report Wrong Elevation
Raw Report
KSSC 191156Z AUTO 02007KT 8SM OVC003 11/10 A3038 RMK AO2 SLP289
T01080097 10135 20108 52015 $=

Extra information for KSSC:More info

Metar Taf Metar & Taf Last 4 Metars F.Rules Stats Wind Profile Meteogram Temp Stats Airport Information Weather charts Add Link Nearby VenuesMetar ALERT Operation Metar Decoded Social comments

AIRNAV info for KSSC